Huvudsida
METAR-TAF:

METAR-TAF

Flygplatser :

Helsingfors-Vanda flygplats

Helsingfors, Finland

latitud: 60-19N, longitud: 024-58E, höjd: 51 m

Aktuellt väderrapport

Denna rapport gjordes för 26 minuter sedan, klockan 15:20 UTC
Vind 11 kt från syd
Temperatur 21°C
Fuktighet 46%
Tryck 1018 hPa
Sikt 10 km eller mer
Få moln på en höjd av 3000 ft
Brutna moln på en höjd av 20000 ft

METAR: EFHK 161520Z 18011KT 9999 FEW030 BKN200 21/09 Q1018 NOSIG

Tid: 18:46 (15:46 UTC)

Väderprognos

Denna rapport gjordes för 1 timme och 17 minuter sedan, klockan 14:29 UTC
Prognos gäller från 16 kl. 15 UTC till 17 kl. 15 UTC
Vind 12 kt från syd
Sikt 10 km eller mer
Få moln på en höjd av 3500 ft
Spridda moln på en höjd av 25000 ft
Blir
från 16 kl. 18 UTC till 16 kl. 20 UTC
Vind 2 kt från syd/sydost
Blir
från 17 kl. 06 UTC till 17 kl. 08 UTC
Vind 12 kt från syd

TAF: EFHK 161429Z 1615/1715 18012KT 9999 FEW035 SCT250 BECMG 1618/1620 16002KT BECMG 1706/1708 18012KT

Aktuella väderrapporter och prognoser från 4000 flygplatser (METAR- och TAF-rapporter).

De tillgängliga stationerna syns som gula och röda prickar på kartan.

För musen över prickarna för att se namnen på stationerna.

Klicka sedan för att få väderrapporter och prognoser.

För att ändra kartan: Klicka på de gröna knapparna med ett svart kors på för att zooma in; den gröna knappen med ett streck på för att zooma ut; eller på de gröna pilarna för angränsande kartor.


METAR-TAF: